sensor_id;sensor_type;location;lat;lon;timestamp;P1;durP1;ratioP1;P2;durP2;ratioP2
6955;SDS011;50345;51.136;16.886;2023-07-28T00:01:25;3.37;;;2.40;;
6955;SDS011;50345;51.136;16.886;2023-07-28T00:03:51;3.15;;;2.72;;
6955;SDS011;50345;51.136;16.886;2023-07-28T00:06:16;6.23;;;3.17;;
6955;SDS011;50345;51.136;16.886;2023-07-28T00:08:42;2.60;;;2.30;;
6955;SDS011;50345;51.136;16.886;2023-07-28T00:11:09;2.40;;;2.20;;
6955;SDS011;50345;51.136;16.886;2023-07-28T00:13:39;3.58;;;2.60;;
6955;SDS011;50345;51.136;16.886;2023-07-28T00:16:05;3.43;;;2.47;;
6955;SDS011;50345;51.136;16.886;2023-07-28T00:18:31;5.45;;;2.20;;
6955;SDS011;50345;51.136;16.886;2023-07-28T00:20:56;6.20;;;3.67;;
6955;SDS011;50345;51.136;16.886;2023-07-28T00:23:22;2.73;;;2.53;;
6955;SDS011;50345;51.136;16.886;2023-07-28T00:25:48;4.70;;;3.20;;
6955;SDS011;50345;51.136;16.886;2023-07-28T00:28:14;2.90;;;2.43;;
6955;SDS011;50345;51.136;16.886;2023-07-28T00:30:40;8.03;;;3.80;;
6955;SDS011;50345;51.136;16.886;2023-07-28T00:33:06;7.40;;;2.53;;
6955;SDS011;50345;51.136;16.886;2023-07-28T00:35:31;4.10;;;2.70;;
6955;SDS011;50345;51.136;16.886;2023-07-28T00:37:57;3.37;;;3.07;;
6955;SDS011;50345;51.136;16.886;2023-07-28T00:40:23;3.60;;;2.33;;
6955;SDS011;50345;51.136;16.886;2023-07-28T00:42:49;3.00;;;1.83;;
6955;SDS011;50345;51.136;16.886;2023-07-28T00:45:15;2.10;;;2.00;;
6955;SDS011;50345;51.136;16.886;2023-07-28T00:47:40;6.90;;;2.50;;
6955;SDS011;50345;51.136;16.886;2023-07-28T00:50:08;4.50;;;2.50;;
6955;SDS011;50345;51.136;16.886;2023-07-28T00:52:35;2.72;;;2.25;;
6955;SDS011;50345;51.136;16.886;2023-07-28T00:55:01;3.08;;;2.10;;
6955;SDS011;50345;51.136;16.886;2023-07-28T00:57:27;4.37;;;2.77;;
6955;SDS011;50345;51.136;16.886;2023-07-28T00:59:53;6.47;;;2.40;;
6955;SDS011;50345;51.136;16.886;2023-07-28T01:02:19;5.73;;;2.53;;
6955;SDS011;50345;51.136;16.886;2023-07-28T01:04:45;4.47;;;2.20;;
6955;SDS011;50345;51.136;16.886;2023-07-28T01:09:46;8.60;;;2.27;;
6955;SDS011;50345;51.136;16.886;2023-07-28T01:12:16;4.97;;;2.22;;
6955;SDS011;50345;51.136;16.886;2023-07-28T01:14:43;2.70;;;2.30;;
6955;SDS011;50345;51.136;16.886;2023-07-28T01:17:09;3.17;;;2.88;;
6955;SDS011;50345;51.136;16.886;2023-07-28T01:19:35;3.67;;;3.33;;
6955;SDS011;50345;51.136;16.886;2023-07-28T01:24:37;3.58;;;3.38;;
6955;SDS011;50345;51.136;16.886;2023-07-28T01:27:07;3.60;;;3.30;;
6955;SDS011;50345;51.136;16.886;2023-07-28T01:29:34;7.15;;;4.60;;
6955;SDS011;50345;51.136;16.886;2023-07-28T01:32:01;4.90;;;4.40;;
6955;SDS011;50345;51.136;16.886;2023-07-28T01:34:27;4.90;;;4.50;;
6955;SDS011;50345;51.136;16.886;2023-07-28T01:36:53;4.77;;;4.37;;
6955;SDS011;50345;51.136;16.886;2023-07-28T01:39:19;8.77;;;4.80;;
6955;SDS011;50345;51.136;16.886;2023-07-28T01:41:45;5.10;;;4.60;;
6955;SDS011;50345;51.136;16.886;2023-07-28T01:44:11;5.73;;;4.77;;
6955;SDS011;50345;51.136;16.886;2023-07-28T01:46:36;6.13;;;5.17;;
6955;SDS011;50345;51.136;16.886;2023-07-28T01:49:04;5.35;;;4.85;;
6955;SDS011;50345;51.136;16.886;2023-07-28T01:51:30;6.70;;;5.93;;
6955;SDS011;50345;51.136;16.886;2023-07-28T01:53:56;6.97;;;6.10;;
6955;SDS011;50345;51.136;16.886;2023-07-28T01:56:22;5.97;;;5.37;;
6955;SDS011;50345;51.136;16.886;2023-07-28T01:58:48;6.53;;;5.80;;
6955;SDS011;50345;51.136;16.886;2023-07-28T02:01:14;6.20;;;5.70;;
6955;SDS011;50345;51.136;16.886;2023-07-28T02:03:40;5.50;;;4.83;;
6955;SDS011;50345;51.136;16.886;2023-07-28T02:06:06;6.20;;;5.60;;
6955;SDS011;50345;51.136;16.886;2023-07-28T02:08:32;6.77;;;5.90;;
6955;SDS011;50345;51.136;16.886;2023-07-28T02:10:58;5.82;;;5.35;;
6955;SDS011;50345;51.136;16.886;2023-07-28T02:13:24;6.03;;;5.63;;
6955;SDS011;50345;51.136;16.886;2023-07-28T02:15:50;6.60;;;5.73;;
6955;SDS011;50345;51.136;16.886;2023-07-28T02:18:16;6.80;;;6.20;;
6955;SDS011;50345;51.136;16.886;2023-07-28T02:20:41;6.73;;;6.20;;
6955;SDS011;50345;51.136;16.886;2023-07-28T02:23:07;6.27;;;5.67;;
6955;SDS011;50345;51.136;16.886;2023-07-28T02:25:33;6.60;;;6.00;;
6955;SDS011;50345;51.136;16.886;2023-07-28T02:27:59;6.63;;;6.10;;
6955;SDS011;50345;51.136;16.886;2023-07-28T02:30:25;6.70;;;6.20;;
6955;SDS011;50345;51.136;16.886;2023-07-28T02:32:51;6.57;;;6.03;;
6955;SDS011;50345;51.136;16.886;2023-07-28T02:35:17;9.23;;;6.70;;
6955;SDS011;50345;51.136;16.886;2023-07-28T02:37:43;8.83;;;5.90;;
6955;SDS011;50345;51.136;16.886;2023-07-28T02:40:09;7.05;;;6.35;;
6955;SDS011;50345;51.136;16.886;2023-07-28T02:42:35;7.20;;;6.30;;
6955;SDS011;50345;51.136;16.886;2023-07-28T02:45:02;5.90;;;5.50;;
6955;SDS011;50345;51.136;16.886;2023-07-28T02:47:28;6.10;;;5.60;;
6955;SDS011;50345;51.136;16.886;2023-07-28T02:49:54;7.67;;;5.80;;
6955;SDS011;50345;51.136;16.886;2023-07-28T02:52:20;5.57;;;5.27;;
6955;SDS011;50345;51.136;16.886;2023-07-28T02:54:46;6.30;;;5.80;;
6955;SDS011;50345;51.136;16.886;2023-07-28T02:57:12;5.47;;;5.07;;
6955;SDS011;50345;51.136;16.886;2023-07-28T02:59:38;6.30;;;5.20;;
6955;SDS011;50345;51.136;16.886;2023-07-28T03:02:04;6.03;;;5.60;;
6955;SDS011;50345;51.136;16.886;2023-07-28T03:04:30;5.45;;;5.05;;
6955;SDS011;50345;51.136;16.886;2023-07-28T03:06:56;9.27;;;5.10;;
6955;SDS011;50345;51.136;16.886;2023-07-28T03:09:22;4.57;;;4.00;;
6955;SDS011;50345;51.136;16.886;2023-07-28T03:11:48;5.22;;;4.82;;
6955;SDS011;50345;51.136;16.886;2023-07-28T03:14:14;4.63;;;4.30;;
6955;SDS011;50345;51.136;16.886;2023-07-28T03:16:42;5.07;;;4.57;;
6955;SDS011;50345;51.136;16.886;2023-07-28T03:19:08;4.00;;;3.70;;
6955;SDS011;50345;51.136;16.886;2023-07-28T03:21:34;4.40;;;3.40;;
6955;SDS011;50345;51.136;16.886;2023-07-28T03:24:00;4.57;;;3.87;;
6955;SDS011;50345;51.136;16.886;2023-07-28T03:26:26;4.03;;;3.72;;
6955;SDS011;50345;51.136;16.886;2023-07-28T03:28:52;5.82;;;4.15;;
6955;SDS011;50345;51.136;16.886;2023-07-28T03:31:18;4.30;;;3.90;;
6955;SDS011;50345;51.136;16.886;2023-07-28T03:33:44;3.93;;;3.63;;
6955;SDS011;50345;51.136;16.886;2023-07-28T03:36:10;4.00;;;3.70;;
6955;SDS011;50345;51.136;16.886;2023-07-28T03:38:36;3.55;;;3.25;;
6955;SDS011;50345;51.136;16.886;2023-07-28T03:41:02;3.20;;;3.00;;
6955;SDS011;50345;51.136;16.886;2023-07-28T03:43:28;3.27;;;3.07;;
6955;SDS011;50345;51.136;16.886;2023-07-28T03:45:54;2.97;;;2.77;;
6955;SDS011;50345;51.136;16.886;2023-07-28T03:48:20;3.20;;;3.00;;
6955;SDS011;50345;51.136;16.886;2023-07-28T03:50:46;3.60;;;2.97;;
6955;SDS011;50345;51.136;16.886;2023-07-28T03:53:12;3.07;;;2.87;;
6955;SDS011;50345;51.136;16.886;2023-07-28T03:55:38;2.77;;;2.57;;
6955;SDS011;50345;51.136;16.886;2023-07-28T03:58:04;3.47;;;2.80;;
6955;SDS011;50345;51.136;16.886;2023-07-28T04:00:29;2.77;;;2.57;;
6955;SDS011;50345;51.136;16.886;2023-07-28T04:02:56;2.58;;;2.33;;
6955;SDS011;50345;51.136;16.886;2023-07-28T04:05:21;2.57;;;2.37;;
6955;SDS011;50345;51.136;16.886;2023-07-28T04:07:47;2.20;;;2.10;;
6955;SDS011;50345;51.136;16.886;2023-07-28T04:10:13;5.90;;;2.07;;
6955;SDS011;50345;51.136;16.886;2023-07-28T04:12:39;3.30;;;2.53;;
6955;SDS011;50345;51.136;16.886;2023-07-28T04:15:05;2.60;;;2.50;;
6955;SDS011;50345;51.136;16.886;2023-07-28T04:17:32;2.35;;;2.22;;
6955;SDS011;50345;51.136;16.886;2023-07-28T04:19:58;3.73;;;2.70;;
6955;SDS011;50345;51.136;16.886;2023-07-28T04:22:23;2.93;;;2.30;;
6955;SDS011;50345;51.136;16.886;2023-07-28T04:24:49;3.30;;;1.93;;
6955;SDS011;50345;51.136;16.886;2023-07-28T04:27:15;2.80;;;1.90;;
6955;SDS011;50345;51.136;16.886;2023-07-28T04:29:41;2.40;;;2.20;;
6955;SDS011;50345;51.136;16.886;2023-07-28T04:32:07;7.87;;;2.00;;
6955;SDS011;50345;51.136;16.886;2023-07-28T04:34:33;2.23;;;2.00;;
6955;SDS011;50345;51.136;16.886;2023-07-28T04:36:59;2.00;;;1.77;;
6955;SDS011;50345;51.136;16.886;2023-07-28T04:39:26;2.75;;;1.50;;
6955;SDS011;50345;51.136;16.886;2023-07-28T04:41:52;1.80;;;1.70;;
6955;SDS011;50345;51.136;16.886;2023-07-28T04:44:18;1.80;;;1.70;;
6955;SDS011;50345;51.136;16.886;2023-07-28T04:46:45;1.67;;;1.47;;
6955;SDS011;50345;51.136;16.886;2023-07-28T04:49:12;6.60;;;2.00;;
6955;SDS011;50345;51.136;16.886;2023-07-28T04:51:38;4.73;;;1.30;;
6955;SDS011;50345;51.136;16.886;2023-07-28T04:54:04;1.50;;;1.40;;
6955;SDS011;50345;51.136;16.886;2023-07-28T04:56:29;4.30;;;1.60;;
6955;SDS011;50345;51.136;16.886;2023-07-28T04:58:55;1.70;;;1.60;;
6955;SDS011;50345;51.136;16.886;2023-07-28T05:01:20;1.33;;;1.23;;
6955;SDS011;50345;51.136;16.886;2023-07-28T05:03:46;5.27;;;1.60;;
6955;SDS011;50345;51.136;16.886;2023-07-28T05:06:12;4.32;;;1.83;;
6955;SDS011;50345;51.136;16.886;2023-07-28T05:08:38;2.53;;;1.53;;
6955;SDS011;50345;51.136;16.886;2023-07-28T05:11:04;1.77;;;1.60;;
6955;SDS011;50345;51.136;16.886;2023-07-28T05:13:29;1.60;;;1.50;;
6955;SDS011;50345;51.136;16.886;2023-07-28T05:15:55;1.93;;;1.40;;
6955;SDS011;50345;51.136;16.886;2023-07-28T05:18:20;2.53;;;1.40;;
6955;SDS011;50345;51.136;16.886;2023-07-28T05:20:46;1.27;;;1.17;;
6955;SDS011;50345;51.136;16.886;2023-07-28T05:23:11;1.80;;;1.70;;
6955;SDS011;50345;51.136;16.886;2023-07-28T05:25:37;1.60;;;1.50;;
6955;SDS011;50345;51.136;16.886;2023-07-28T05:28:02;3.90;;;1.70;;
6955;SDS011;50345;51.136;16.886;2023-07-28T05:30:28;4.53;;;2.30;;
6955;SDS011;50345;51.136;16.886;2023-07-28T05:32:54;2.47;;;1.80;;
6955;SDS011;50345;51.136;16.886;2023-07-28T05:35:19;1.70;;;1.60;;
6955;SDS011;50345;51.136;16.886;2023-07-28T05:37:45;5.87;;;1.90;;
6955;SDS011;50345;51.136;16.886;2023-07-28T05:40:11;2.33;;;1.30;;
6955;SDS011;50345;51.136;16.886;2023-07-28T05:42:37;2.88;;;1.70;;
6955;SDS011;50345;51.136;16.886;2023-07-28T05:45:03;1.40;;;1.30;;
6955;SDS011;50345;51.136;16.886;2023-07-28T05:47:29;1.57;;;1.47;;
6955;SDS011;50345;51.136;16.886;2023-07-28T05:49:54;1.30;;;1.20;;
6955;SDS011;50345;51.136;16.886;2023-07-28T05:52:20;1.30;;;1.20;;
6955;SDS011;50345;51.136;16.886;2023-07-28T05:54:47;1.55;;;0.93;;
6955;SDS011;50345;51.136;16.886;2023-07-28T05:57:13;1.10;;;1.07;;
6955;SDS011;50345;51.136;16.886;2023-07-28T05:59:39;1.10;;;0.97;;
6955;SDS011;50345;51.136;16.886;2023-07-28T06:02:05;2.30;;;1.67;;
6955;SDS011;50345;51.136;16.886;2023-07-28T06:04:31;1.90;;;1.80;;
6955;SDS011;50345;51.136;16.886;2023-07-28T06:06:57;2.45;;;1.40;;
6955;SDS011;50345;51.136;16.886;2023-07-28T06:09:23;1.20;;;1.10;;
6955;SDS011;50345;51.136;16.886;2023-07-28T06:11:49;1.50;;;1.20;;
6955;SDS011;50345;51.136;16.886;2023-07-28T06:14:15;1.83;;;1.10;;
6955;SDS011;50345;51.136;16.886;2023-07-28T06:16:41;0.80;;;0.80;;
6955;SDS011;50345;51.136;16.886;2023-07-28T06:19:07;0.70;;;0.70;;
6955;SDS011;50345;51.136;16.886;2023-07-28T06:21:33;1.10;;;1.00;;
6955;SDS011;50345;51.136;16.886;2023-07-28T06:23:59;0.90;;;0.90;;
6955;SDS011;50345;51.136;16.886;2023-07-28T06:26:25;2.07;;;0.83;;
6955;SDS011;50345;51.136;16.886;2023-07-28T06:28:51;1.20;;;1.10;;
6955;SDS011;50345;51.136;16.886;2023-07-28T06:31:17;0.90;;;0.90;;
6955;SDS011;50345;51.136;16.886;2023-07-28T06:33:43;3.33;;;1.10;;
6955;SDS011;50345;51.136;16.886;2023-07-28T06:36:09;1.00;;;1.00;;
6955;SDS011;50345;51.136;16.886;2023-07-28T06:38:35;1.57;;;0.90;;
6955;SDS011;50345;51.136;16.886;2023-07-28T06:41:01;1.27;;;1.17;;
6955;SDS011;50345;51.136;16.886;2023-07-28T06:43:27;3.20;;;1.07;;
6955;SDS011;50345;51.136;16.886;2023-07-28T06:45:53;0.80;;;0.80;;
6955;SDS011;50345;51.136;16.886;2023-07-28T06:48:19;4.67;;;2.50;;
6955;SDS011;50345;51.136;16.886;2023-07-28T06:50:45;1.30;;;1.07;;
6955;SDS011;50345;51.136;16.886;2023-07-28T06:53:11;3.63;;;1.10;;
6955;SDS011;50345;51.136;16.886;2023-07-28T06:55:37;2.03;;;1.20;;
6955;SDS011;50345;51.136;16.886;2023-07-28T06:58:04;0.83;;;0.80;;
6955;SDS011;50345;51.136;16.886;2023-07-28T07:00:30;1.27;;;1.00;;
6955;SDS011;50345;51.136;16.886;2023-07-28T07:02:56;1.20;;;1.00;;
6955;SDS011;50345;51.136;16.886;2023-07-28T07:05:21;1.10;;;1.00;;
6955;SDS011;50345;51.136;16.886;2023-07-28T07:07:48;1.17;;;0.70;;
6955;SDS011;50345;51.136;16.886;2023-07-28T07:10:14;1.10;;;1.00;;
6955;SDS011;50345;51.136;16.886;2023-07-28T07:12:39;0.70;;;0.70;;
6955;SDS011;50345;51.136;16.886;2023-07-28T07:15:05;0.87;;;0.87;;
6955;SDS011;50345;51.136;16.886;2023-07-28T07:17:32;1.63;;;0.73;;
6955;SDS011;50345;51.136;16.886;2023-07-28T07:19:58;0.93;;;0.90;;
6955;SDS011;50345;51.136;16.886;2023-07-28T07:22:23;1.37;;;0.80;;
6955;SDS011;50345;51.136;16.886;2023-07-28T07:24:49;0.90;;;0.80;;
6955;SDS011;50345;51.136;16.886;2023-07-28T07:27:14;1.73;;;1.13;;
6955;SDS011;50345;51.136;16.886;2023-07-28T07:29:40;1.00;;;0.87;;
6955;SDS011;50345;51.136;16.886;2023-07-28T07:32:06;2.00;;;1.87;;
6955;SDS011;50345;51.136;16.886;2023-07-28T07:34:33;2.03;;;1.73;;
6955;SDS011;50345;51.136;16.886;2023-07-28T07:36:59;1.03;;;0.97;;
6955;SDS011;50345;51.136;16.886;2023-07-28T07:39:24;1.57;;;1.27;;
6955;SDS011;50345;51.136;16.886;2023-07-28T07:41:50;2.17;;;2.07;;
6955;SDS011;50345;51.136;16.886;2023-07-28T07:44:16;3.60;;;3.40;;
6955;SDS011;50345;51.136;16.886;2023-07-28T07:46:41;3.13;;;2.80;;
6955;SDS011;50345;51.136;16.886;2023-07-28T07:49:07;1.40;;;1.30;;
6955;SDS011;50345;51.136;16.886;2023-07-28T07:51:33;1.17;;;1.10;;
6955;SDS011;50345;51.136;16.886;2023-07-28T07:53:59;1.77;;;1.60;;
6955;SDS011;50345;51.136;16.886;2023-07-28T07:56:26;1.63;;;1.33;;
6955;SDS011;50345;51.136;16.886;2023-07-28T07:58:52;1.40;;;1.30;;
6955;SDS011;50345;51.136;16.886;2023-07-28T08:01:18;3.47;;;1.03;;
6955;SDS011;50345;51.136;16.886;2023-07-28T08:03:43;1.30;;;1.20;;
6955;SDS011;50345;51.136;16.886;2023-07-28T08:06:09;6.17;;;2.07;;
6955;SDS011;50345;51.136;16.886;2023-07-28T08:08:36;1.93;;;1.20;;
6955;SDS011;50345;51.136;16.886;2023-07-28T08:11:02;1.30;;;1.20;;
6955;SDS011;50345;51.136;16.886;2023-07-28T08:13:28;1.73;;;0.90;;
6955;SDS011;50345;51.136;16.886;2023-07-28T08:15:53;2.90;;;1.40;;
6955;SDS011;50345;51.136;16.886;2023-07-28T08:18:19;2.13;;;1.93;;
6955;SDS011;50345;51.136;16.886;2023-07-28T08:20:45;1.40;;;1.30;;
6955;SDS011;50345;51.136;16.886;2023-07-28T08:23:10;2.00;;;1.90;;
6955;SDS011;50345;51.136;16.886;2023-07-28T08:25:36;3.30;;;3.00;;
6955;SDS011;50345;51.136;16.886;2023-07-28T08:28:02;3.50;;;3.30;;
6955;SDS011;50345;51.136;16.886;2023-07-28T08:30:27;3.80;;;3.50;;
6955;SDS011;50345;51.136;16.886;2023-07-28T08:32:53;2.37;;;2.27;;
6955;SDS011;50345;51.136;16.886;2023-07-28T08:35:19;2.07;;;1.80;;
6955;SDS011;50345;51.136;16.886;2023-07-28T08:37:45;1.33;;;1.23;;
6955;SDS011;50345;51.136;16.886;2023-07-28T08:40:10;2.67;;;1.23;;
6955;SDS011;50345;51.136;16.886;2023-07-28T08:42:38;1.30;;;1.20;;
6955;SDS011;50345;51.136;16.886;2023-07-28T08:45:04;2.23;;;1.10;;
6955;SDS011;50345;51.136;16.886;2023-07-28T08:47:36;2.80;;;1.90;;
6955;SDS011;50345;51.136;16.886;2023-07-28T08:50:03;3.33;;;2.60;;
6955;SDS011;50345;51.136;16.886;2023-07-28T08:52:30;5.10;;;4.70;;
6955;SDS011;50345;51.136;16.886;2023-07-28T08:54:57;2.60;;;2.50;;
6955;SDS011;50345;51.136;16.886;2023-07-28T08:57:22;2.40;;;2.20;;
6955;SDS011;50345;51.136;16.886;2023-07-28T08:59:48;3.03;;;2.83;;
6955;SDS011;50345;51.136;16.886;2023-07-28T09:02:14;2.60;;;2.43;;
6955;SDS011;50345;51.136;16.886;2023-07-28T09:04:42;3.53;;;2.37;;
6955;SDS011;50345;51.136;16.886;2023-07-28T09:07:08;3.20;;;2.13;;
6955;SDS011;50345;51.136;16.886;2023-07-28T09:09:34;1.67;;;1.57;;
6955;SDS011;50345;51.136;16.886;2023-07-28T09:12:02;1.67;;;1.57;;
6955;SDS011;50345;51.136;16.886;2023-07-28T09:14:32;3.70;;;2.13;;
6955;SDS011;50345;51.136;16.886;2023-07-28T09:17:07;2.23;;;1.50;;
6955;SDS011;50345;51.136;16.886;2023-07-28T09:19:34;2.37;;;2.20;;
6955;SDS011;50345;51.136;16.886;2023-07-28T09:22:00;1.70;;;1.60;;
6955;SDS011;50345;51.136;16.886;2023-07-28T09:24:30;1.70;;;1.60;;
6955;SDS011;50345;51.136;16.886;2023-07-28T09:26:57;1.43;;;1.33;;
6955;SDS011;50345;51.136;16.886;2023-07-28T09:29:23;2.20;;;2.10;;
6955;SDS011;50345;51.136;16.886;2023-07-28T09:31:50;1.70;;;1.60;;
6955;SDS011;50345;51.136;16.886;2023-07-28T09:34:23;1.70;;;1.60;;
6955;SDS011;50345;51.136;16.886;2023-07-28T09:36:49;2.70;;;1.87;;
6955;SDS011;50345;51.136;16.886;2023-07-28T09:39:15;2.40;;;1.57;;
6955;SDS011;50345;51.136;16.886;2023-07-28T09:41:43;1.73;;;1.10;;
6955;SDS011;50345;51.136;16.886;2023-07-28T09:44:10;2.50;;;1.40;;
6955;SDS011;50345;51.136;16.886;2023-07-28T09:46:36;2.20;;;1.77;;
6955;SDS011;50345;51.136;16.886;2023-07-28T09:49:13;1.70;;;1.60;;
6955;SDS011;50345;51.136;16.886;2023-07-28T09:51:40;1.57;;;1.47;;
6955;SDS011;50345;51.136;16.886;2023-07-28T09:54:11;1.50;;;1.40;;
6955;SDS011;50345;51.136;16.886;2023-07-28T09:56:38;1.50;;;1.40;;
6955;SDS011;50345;51.136;16.886;2023-07-28T09:59:10;2.40;;;1.23;;
6955;SDS011;50345;51.136;16.886;2023-07-28T10:01:39;1.63;;;1.53;;
6955;SDS011;50345;51.136;16.886;2023-07-28T10:04:05;2.40;;;1.53;;
6955;SDS011;50345;51.136;16.886;2023-07-28T10:06:32;1.70;;;1.60;;
6955;SDS011;50345;51.136;16.886;2023-07-28T10:08:59;1.63;;;1.53;;
6955;SDS011;50345;51.136;16.886;2023-07-28T10:11:25;1.60;;;1.50;;
6955;SDS011;50345;51.136;16.886;2023-07-28T10:13:52;1.40;;;1.30;;
6955;SDS011;50345;51.136;16.886;2023-07-28T10:16:19;3.83;;;1.70;;
6955;SDS011;50345;51.136;16.886;2023-07-28T10:18:52;3.43;;;1.40;;
6955;SDS011;50345;51.136;16.886;2023-07-28T10:21:19;1.40;;;1.30;;
6955;SDS011;50345;51.136;16.886;2023-07-28T10:23:45;4.60;;;4.20;;
6955;SDS011;50345;51.136;16.886;2023-07-28T10:26:28;3.00;;;1.70;;
6955;SDS011;50345;51.136;16.886;2023-07-28T10:28:56;1.40;;;1.30;;
6955;SDS011;50345;51.136;16.886;2023-07-28T10:31:33;1.50;;;1.40;;
6955;SDS011;50345;51.136;16.886;2023-07-28T10:33:59;3.77;;;1.70;;
6955;SDS011;50345;51.136;16.886;2023-07-28T10:41:30;1.60;;;1.50;;
6955;SDS011;50345;51.136;16.886;2023-07-28T10:43:56;2.63;;;1.23;;
6955;SDS011;50345;51.136;16.886;2023-07-28T10:46:22;1.20;;;1.03;;
6955;SDS011;50345;51.136;16.886;2023-07-28T10:48:49;1.50;;;1.10;;
6955;SDS011;50345;51.136;16.886;2023-07-28T10:53:51;1.50;;;1.40;;
6955;SDS011;50345;51.136;16.886;2023-07-28T10:56:17;1.40;;;1.30;;
6955;SDS011;50345;51.136;16.886;2023-07-28T10:58:44;2.20;;;2.00;;
6955;SDS011;50345;51.136;16.886;2023-07-28T11:01:10;1.60;;;1.50;;
6955;SDS011;50345;51.136;16.886;2023-07-28T11:03:36;1.70;;;1.60;;
6955;SDS011;50345;51.136;16.886;2023-07-28T11:06:03;2.33;;;1.43;;
6955;SDS011;50345;51.136;16.886;2023-07-28T11:08:31;1.40;;;1.30;;
6955;SDS011;50345;51.136;16.886;2023-07-28T11:10:58;1.37;;;1.27;;
6955;SDS011;50345;51.136;16.886;2023-07-28T11:13:24;1.50;;;1.40;;
6955;SDS011;50345;51.136;16.886;2023-07-28T11:15:50;4.30;;;1.30;;
6955;SDS011;50345;51.136;16.886;2023-07-28T11:18:16;1.43;;;1.23;;
6955;SDS011;50345;51.136;16.886;2023-07-28T11:20:42;1.40;;;1.30;;
6955;SDS011;50345;51.136;16.886;2023-07-28T11:23:09;1.60;;;1.50;;
6955;SDS011;50345;51.136;16.886;2023-07-28T11:25:35;2.30;;;1.83;;
6955;SDS011;50345;51.136;16.886;2023-07-28T11:28:03;1.60;;;1.50;;
6955;SDS011;50345;51.136;16.886;2023-07-28T11:30:32;1.40;;;1.30;;
6955;SDS011;50345;51.136;16.886;2023-07-28T11:33:02;1.70;;;1.60;;
6955;SDS011;50345;51.136;16.886;2023-07-28T11:35:29;2.57;;;1.57;;
6955;SDS011;50345;51.136;16.886;2023-07-28T11:37:55;1.30;;;1.20;;
6955;SDS011;50345;51.136;16.886;2023-07-28T11:40:22;1.20;;;1.10;;
6955;SDS011;50345;51.136;16.886;2023-07-28T11:42:52;1.00;;;1.00;;
6955;SDS011;50345;51.136;16.886;2023-07-28T11:45:19;1.30;;;1.20;;
6955;SDS011;50345;51.136;16.886;2023-07-28T11:48:03;1.20;;;1.10;;
6955;SDS011;50345;51.136;16.886;2023-07-28T11:50:40;1.63;;;1.20;;
6955;SDS011;50345;51.136;16.886;2023-07-28T11:53:09;1.43;;;1.30;;
6955;SDS011;50345;51.136;16.886;2023-07-28T11:55:36;2.27;;;2.07;;
6955;SDS011;50345;51.136;16.886;2023-07-28T11:58:03;2.10;;;1.60;;
6955;SDS011;50345;51.136;16.886;2023-07-28T12:00:30;1.70;;;1.47;;
6955;SDS011;50345;51.136;16.886;2023-07-28T12:05:31;2.80;;;1.23;;
6955;SDS011;50345;51.136;16.886;2023-07-28T12:08:00;1.83;;;1.27;;
6955;SDS011;50345;51.136;16.886;2023-07-28T12:10:28;3.67;;;1.27;;
6955;SDS011;50345;51.136;16.886;2023-07-28T12:12:54;1.00;;;1.00;;
6955;SDS011;50345;51.136;16.886;2023-07-28T12:15:27;1.30;;;1.20;;
6955;SDS011;50345;51.136;16.886;2023-07-28T12:18:12;1.63;;;1.10;;
6955;SDS011;50345;51.136;16.886;2023-07-28T12:23:11;1.40;;;1.30;;
6955;SDS011;50345;51.136;16.886;2023-07-28T12:25:38;1.83;;;1.30;;
6955;SDS011;50345;51.136;16.886;2023-07-28T12:28:04;1.77;;;1.20;;
6955;SDS011;50345;51.136;16.886;2023-07-28T12:30:30;6.40;;;5.83;;
6955;SDS011;50345;51.136;16.886;2023-07-28T12:32:56;3.60;;;1.30;;
6955;SDS011;50345;51.136;16.886;2023-07-28T12:35:23;2.40;;;1.30;;
6955;SDS011;50345;51.136;16.886;2023-07-28T12:37:49;1.73;;;1.40;;
6955;SDS011;50345;51.136;16.886;2023-07-28T12:40:16;1.40;;;1.30;;
6955;SDS011;50345;51.136;16.886;2023-07-28T12:42:44;1.57;;;1.47;;
6955;SDS011;50345;51.136;16.886;2023-07-28T12:45:10;6.17;;;1.17;;
6955;SDS011;50345;51.136;16.886;2023-07-28T12:47:36;2.70;;;0.90;;
6955;SDS011;50345;51.136;16.886;2023-07-28T12:50:02;1.07;;;1.00;;
6955;SDS011;50345;51.136;16.886;2023-07-28T12:52:29;1.00;;;0.87;;
6955;SDS011;50345;51.136;16.886;2023-07-28T12:54:55;1.30;;;1.03;;
6955;SDS011;50345;51.136;16.886;2023-07-28T12:57:21;1.63;;;1.50;;
6955;SDS011;50345;51.136;16.886;2023-07-28T12:59:48;2.60;;;1.17;;
6955;SDS011;50345;51.136;16.886;2023-07-28T13:02:14;1.50;;;1.40;;
6955;SDS011;50345;51.136;16.886;2023-07-28T13:04:40;2.13;;;1.60;;
6955;SDS011;50345;51.136;16.886;2023-07-28T13:07:06;1.63;;;1.13;;
6955;SDS011;50345;51.136;16.886;2023-07-28T13:09:32;1.27;;;1.17;;
6955;SDS011;50345;51.136;16.886;2023-07-28T13:11:58;3.20;;;1.23;;
6955;SDS011;50345;51.136;16.886;2023-07-28T13:14:24;1.20;;;1.10;;
6955;SDS011;50345;51.136;16.886;2023-07-28T13:16:50;3.53;;;0.90;;
6955;SDS011;50345;51.136;16.886;2023-07-28T13:19:16;1.10;;;1.00;;
6955;SDS011;50345;51.136;16.886;2023-07-28T13:21:42;1.33;;;1.23;;
6955;SDS011;50345;51.136;16.886;2023-07-28T13:24:08;0.90;;;0.90;;
6955;SDS011;50345;51.136;16.886;2023-07-28T13:26:34;1.70;;;0.80;;
6955;SDS011;50345;51.136;16.886;2023-07-28T13:29:00;2.60;;;0.80;;
6955;SDS011;50345;51.136;16.886;2023-07-28T13:31:27;0.80;;;0.80;;
6955;SDS011;50345;51.136;16.886;2023-07-28T13:33:53;1.00;;;0.90;;
6955;SDS011;50345;51.136;16.886;2023-07-28T13:36:19;0.80;;;0.80;;
6955;SDS011;50345;51.136;16.886;2023-07-28T13:38:45;1.80;;;1.00;;
6955;SDS011;50345;51.136;16.886;2023-07-28T13:41:11;0.80;;;0.80;;
6955;SDS011;50345;51.136;16.886;2023-07-28T13:43:37;1.07;;;0.90;;
6955;SDS011;50345;51.136;16.886;2023-07-28T13:46:05;1.10;;;1.00;;
6955;SDS011;50345;51.136;16.886;2023-07-28T13:48:31;1.20;;;1.00;;
6955;SDS011;50345;51.136;16.886;2023-07-28T13:50:57;1.20;;;1.00;;
6955;SDS011;50345;51.136;16.886;2023-07-28T13:53:24;1.47;;;1.07;;
6955;SDS011;50345;51.136;16.886;2023-07-28T13:55:50;0.90;;;0.90;;
6955;SDS011;50345;51.136;16.886;2023-07-28T13:58:16;2.20;;;2.10;;
6955;SDS011;50345;51.136;16.886;2023-07-28T14:00:42;0.90;;;0.90;;
6955;SDS011;50345;51.136;16.886;2023-07-28T14:03:08;0.90;;;0.90;;
6955;SDS011;50345;51.136;16.886;2023-07-28T14:05:35;1.20;;;1.10;;
6955;SDS011;50345;51.136;16.886;2023-07-28T14:08:01;0.80;;;0.80;;
6955;SDS011;50345;51.136;16.886;2023-07-28T14:10:27;0.90;;;0.90;;
6955;SDS011;50345;51.136;16.886;2023-07-28T14:12:53;2.27;;;1.30;;
6955;SDS011;50345;51.136;16.886;2023-07-28T14:15:19;1.00;;;1.00;;
6955;SDS011;50345;51.136;16.886;2023-07-28T14:17:45;0.83;;;0.83;;
6955;SDS011;50345;51.136;16.886;2023-07-28T14:20:11;1.67;;;0.80;;
6955;SDS011;50345;51.136;16.886;2023-07-28T14:22:37;0.80;;;0.80;;
6955;SDS011;50345;51.136;16.886;2023-07-28T14:25:03;0.90;;;0.90;;
6955;SDS011;50345;51.136;16.886;2023-07-28T14:27:29;1.20;;;1.10;;
6955;SDS011;50345;51.136;16.886;2023-07-28T14:29:55;1.70;;;1.10;;
6955;SDS011;50345;51.136;16.886;2023-07-28T14:32:21;0.90;;;0.90;;
6955;SDS011;50345;51.136;16.886;2023-07-28T14:34:47;0.93;;;0.93;;
6955;SDS011;50345;51.136;16.886;2023-07-28T14:37:13;1.37;;;0.90;;
6955;SDS011;50345;51.136;16.886;2023-07-28T14:39:40;0.93;;;0.93;;
6955;SDS011;50345;51.136;16.886;2023-07-28T14:42:06;1.00;;;0.90;;
6955;SDS011;50345;51.136;16.886;2023-07-28T14:44:32;0.80;;;0.70;;
6955;SDS011;50345;51.136;16.886;2023-07-28T14:46:58;1.77;;;0.97;;
6955;SDS011;50345;51.136;16.886;2023-07-28T14:49:24;0.90;;;0.90;;
6955;SDS011;50345;51.136;16.886;2023-07-28T14:51:54;1.07;;;0.80;;
6955;SDS011;50345;51.136;16.886;2023-07-28T14:54:20;1.00;;;0.90;;
6955;SDS011;50345;51.136;16.886;2023-07-28T14:56:46;1.20;;;1.00;;
6955;SDS011;50345;51.136;16.886;2023-07-28T14:59:12;3.90;;;0.80;;
6955;SDS011;50345;51.136;16.886;2023-07-28T15:01:38;1.67;;;0.70;;